sensor_id;sensor_type;location;lat;lon;timestamp;P1;P2;P0
63662;PMS5003;49815;51.618;0.336;2023-02-01T00:02:18;13;9;
63662;PMS5003;49815;51.618;0.336;2023-02-01T00:04:44;8;8;
63662;PMS5003;49815;51.618;0.336;2023-02-01T00:07:09;11;6;
63662;PMS5003;49815;51.618;0.336;2023-02-01T00:09:35;10;6;
63662;PMS5003;49815;51.618;0.336;2023-02-01T00:12:00;11;5;
63662;PMS5003;49815;51.618;0.336;2023-02-01T00:14:26;8;5;
63662;PMS5003;49815;51.618;0.336;2023-02-01T00:16:51;15;8;
63662;PMS5003;49815;51.618;0.336;2023-02-01T00:19:17;8;8;
63662;PMS5003;49815;51.618;0.336;2023-02-01T00:21:42;6;6;
63662;PMS5003;49815;51.618;0.336;2023-02-01T00:24:08;9;3;
63662;PMS5003;49815;51.618;0.336;2023-02-01T00:26:34;12;9;
63662;PMS5003;49815;51.618;0.336;2023-02-01T00:29:00;10;8;
63662;PMS5003;49815;51.618;0.336;2023-02-01T00:31:24;6;3;
63662;PMS5003;49815;51.618;0.336;2023-02-01T00:33:50;6;6;
63662;PMS5003;49815;51.618;0.336;2023-02-01T00:36:16;12;6;
63662;PMS5003;49815;51.618;0.336;2023-02-01T00:38:41;11;5;
63662;PMS5003;49815;51.618;0.336;2023-02-01T00:41:07;3;3;
63662;PMS5003;49815;51.618;0.336;2023-02-01T00:43:33;10;5;
63662;PMS5003;49815;51.618;0.336;2023-02-01T00:45:58;13;6;
63662;PMS5003;49815;51.618;0.336;2023-02-01T00:48:23;13;9;
63662;PMS5003;49815;51.618;0.336;2023-02-01T00:50:49;10;6;
63662;PMS5003;49815;51.618;0.336;2023-02-01T00:53:14;6;5;
63662;PMS5003;49815;51.618;0.336;2023-02-01T00:55:39;11;9;
63662;PMS5003;49815;51.618;0.336;2023-02-01T00:58:05;13;8;
63662;PMS5003;49815;51.618;0.336;2023-02-01T01:00:31;12;5;
63662;PMS5003;49815;51.618;0.336;2023-02-01T01:02:56;9;8;
63662;PMS5003;49815;51.618;0.336;2023-02-01T01:05:22;12;8;
63662;PMS5003;49815;51.618;0.336;2023-02-01T01:07:48;8;5;
63662;PMS5003;49815;51.618;0.336;2023-02-01T01:10:13;11;8;
63662;PMS5003;49815;51.618;0.336;2023-02-01T01:12:39;6;5;
63662;PMS5003;49815;51.618;0.336;2023-02-01T01:15:05;16;6;
63662;PMS5003;49815;51.618;0.336;2023-02-01T01:17:30;10;5;
63662;PMS5003;49815;51.618;0.336;2023-02-01T01:19:56;11;6;
63662;PMS5003;49815;51.618;0.336;2023-02-01T01:22:21;9;5;
63662;PMS5003;49815;51.618;0.336;2023-02-01T01:24:47;12;8;
63662;PMS5003;49815;51.618;0.336;2023-02-01T01:27:12;10;9;
63662;PMS5003;49815;51.618;0.336;2023-02-01T01:29:38;9;8;
63662;PMS5003;49815;51.618;0.336;2023-02-01T01:32:04;12;9;
63662;PMS5003;49815;51.618;0.336;2023-02-01T01:34:29;18;12;
63662;PMS5003;49815;51.618;0.336;2023-02-01T01:36:55;8;8;
63662;PMS5003;49815;51.618;0.336;2023-02-01T01:39:20;9;5;
63662;PMS5003;49815;51.618;0.336;2023-02-01T01:41:46;10;6;
63662;PMS5003;49815;51.618;0.336;2023-02-01T01:46:37;14;9;
63662;PMS5003;49815;51.618;0.336;2023-02-01T01:49:04;23;12;
63662;PMS5003;49815;51.618;0.336;2023-02-01T01:51:28;8;6;
63662;PMS5003;49815;51.618;0.336;2023-02-01T01:53:54;8;5;
63662;PMS5003;49815;51.618;0.336;2023-02-01T01:56:18;6;6;
63662;PMS5003;49815;51.618;0.336;2023-02-01T01:58:44;9;5;
63662;PMS5003;49815;51.618;0.336;2023-02-01T02:01:10;8;4;
63662;PMS5003;49815;51.618;0.336;2023-02-01T02:03:37;11;6;
63662;PMS5003;49815;51.618;0.336;2023-02-01T02:06:02;12;6;
63662;PMS5003;49815;51.618;0.336;2023-02-01T02:08:27;10;6;
63662;PMS5003;49815;51.618;0.336;2023-02-01T02:10:52;9;4;
63662;PMS5003;49815;51.618;0.336;2023-02-01T02:13:17;10;9;
63662;PMS5003;49815;51.618;0.336;2023-02-01T02:15:44;14;9;
63662;PMS5003;49815;51.618;0.336;2023-02-01T02:18:09;8;6;
63662;PMS5003;49815;51.618;0.336;2023-02-01T02:20:39;6;5;
63662;PMS5003;49815;51.618;0.336;2023-02-01T02:23:03;4;4;
63662;PMS5003;49815;51.618;0.336;2023-02-01T02:25:32;12;8;
63662;PMS5003;49815;51.618;0.336;2023-02-01T02:27:51;5;4;
63662;PMS5003;49815;51.618;0.336;2023-02-01T02:30:22;10;4;
63662;PMS5003;49815;51.618;0.336;2023-02-01T02:32:48;8;4;
63662;PMS5003;49815;51.618;0.336;2023-02-01T02:35:08;7;5;
63662;PMS5003;49815;51.618;0.336;2023-02-01T02:37:36;10;5;
63662;PMS5003;49815;51.618;0.336;2023-02-01T02:39:59;11;8;
63662;PMS5003;49815;51.618;0.336;2023-02-01T02:42:25;11;8;
63662;PMS5003;49815;51.618;0.336;2023-02-01T02:44:50;9;6;
63662;PMS5003;49815;51.618;0.336;2023-02-01T02:47:16;18;11;
63662;PMS5003;49815;51.618;0.336;2023-02-01T02:49:42;5;5;
63662;PMS5003;49815;51.618;0.336;2023-02-01T02:52:07;11;6;
63662;PMS5003;49815;51.618;0.336;2023-02-01T02:54:32;7;4;
63662;PMS5003;49815;51.618;0.336;2023-02-01T02:56:57;9;5;
63662;PMS5003;49815;51.618;0.336;2023-02-01T02:59:23;11;8;
63662;PMS5003;49815;51.618;0.336;2023-02-01T03:01:48;7;6;
63662;PMS5003;49815;51.618;0.336;2023-02-01T03:04:13;9;5;
63662;PMS5003;49815;51.618;0.336;2023-02-01T03:06:39;10;6;
63662;PMS5003;49815;51.618;0.336;2023-02-01T03:09:06;9;5;
63662;PMS5003;49815;51.618;0.336;2023-02-01T03:11:30;5;5;
63662;PMS5003;49815;51.618;0.336;2023-02-01T03:13:56;9;4;
63662;PMS5003;49815;51.618;0.336;2023-02-01T03:16:22;17;8;
63662;PMS5003;49815;51.618;0.336;2023-02-01T03:18:48;11;6;
63662;PMS5003;49815;51.618;0.336;2023-02-01T03:21:14;12;5;
63662;PMS5003;49815;51.618;0.336;2023-02-01T03:23:38;18;10;
63662;PMS5003;49815;51.618;0.336;2023-02-01T03:26:04;9;6;
63662;PMS5003;49815;51.618;0.336;2023-02-01T03:28:29;5;5;
63662;PMS5003;49815;51.618;0.336;2023-02-01T03:30:55;9;6;
63662;PMS5003;49815;51.618;0.336;2023-02-01T03:33:21;8;4;
63662;PMS5003;49815;51.618;0.336;2023-02-01T03:35:47;11;6;
63662;PMS5003;49815;51.618;0.336;2023-02-01T03:38:13;11;8;
63662;PMS5003;49815;51.618;0.336;2023-02-01T03:40:38;9;8;
63662;PMS5003;49815;51.618;0.336;2023-02-01T03:43:03;17;10;
63662;PMS5003;49815;51.618;0.336;2023-02-01T03:45:29;12;6;
63662;PMS5003;49815;51.618;0.336;2023-02-01T03:47:54;12;5;
63662;PMS5003;49815;51.618;0.336;2023-02-01T03:50:19;12;6;
63662;PMS5003;49815;51.618;0.336;2023-02-01T03:52:45;6;4;
63662;PMS5003;49815;51.618;0.336;2023-02-01T03:55:11;6;5;
63662;PMS5003;49815;51.618;0.336;2023-02-01T03:57:37;4;4;
63662;PMS5003;49815;51.618;0.336;2023-02-01T04:00:05;10;6;
63662;PMS5003;49815;51.618;0.336;2023-02-01T04:02:27;9;6;
63662;PMS5003;49815;51.618;0.336;2023-02-01T04:04:52;12;4;
63662;PMS5003;49815;51.618;0.336;2023-02-01T04:07:18;10;10;
63662;PMS5003;49815;51.618;0.336;2023-02-01T04:09:44;6;5;
63662;PMS5003;49815;51.618;0.336;2023-02-01T04:12:10;5;4;
63662;PMS5003;49815;51.618;0.336;2023-02-01T04:14:35;14;5;
63662;PMS5003;49815;51.618;0.336;2023-02-01T04:17:01;12;5;
63662;PMS5003;49815;51.618;0.336;2023-02-01T04:19:26;13;4;
63662;PMS5003;49815;51.618;0.336;2023-02-01T04:21:52;9;6;
63662;PMS5003;49815;51.618;0.336;2023-02-01T04:24:18;10;6;
63662;PMS5003;49815;51.618;0.336;2023-02-01T04:26:43;6;4;
63662;PMS5003;49815;51.618;0.336;2023-02-01T04:29:09;11;6;
63662;PMS5003;49815;51.618;0.336;2023-02-01T04:31:34;10;8;
63662;PMS5003;49815;51.618;0.336;2023-02-01T04:34:00;13;5;
63662;PMS5003;49815;51.618;0.336;2023-02-01T04:36:25;11;9;
63662;PMS5003;49815;51.618;0.336;2023-02-01T04:38:50;6;6;
63662;PMS5003;49815;51.618;0.336;2023-02-01T04:41:16;10;5;
63662;PMS5003;49815;51.618;0.336;2023-02-01T04:43:41;6;5;
63662;PMS5003;49815;51.618;0.336;2023-02-01T04:46:07;5;5;
63662;PMS5003;49815;51.618;0.336;2023-02-01T04:48:33;5;5;
63662;PMS5003;49815;51.618;0.336;2023-02-01T04:50:58;10;6;
63662;PMS5003;49815;51.618;0.336;2023-02-01T04:53:24;8;4;
63662;PMS5003;49815;51.618;0.336;2023-02-01T04:55:49;11;6;
63662;PMS5003;49815;51.618;0.336;2023-02-01T04:58:14;8;4;
63662;PMS5003;49815;51.618;0.336;2023-02-01T05:00:40;15;5;
63662;PMS5003;49815;51.618;0.336;2023-02-01T05:03:05;7;4;
63662;PMS5003;49815;51.618;0.336;2023-02-01T05:05:31;13;8;
63662;PMS5003;49815;51.618;0.336;2023-02-01T05:07:57;6;5;
63662;PMS5003;49815;51.618;0.336;2023-02-01T05:10:23;11;4;
63662;PMS5003;49815;51.618;0.336;2023-02-01T05:12:48;10;8;
63662;PMS5003;49815;51.618;0.336;2023-02-01T05:15:14;6;4;
63662;PMS5003;49815;51.618;0.336;2023-02-01T05:17:39;9;4;
63662;PMS5003;49815;51.618;0.336;2023-02-01T05:20:05;16;6;
63662;PMS5003;49815;51.618;0.336;2023-02-01T05:22:31;14;11;
63662;PMS5003;49815;51.618;0.336;2023-02-01T05:24:56;8;5;
63662;PMS5003;49815;51.618;0.336;2023-02-01T05:27:22;5;3;
63662;PMS5003;49815;51.618;0.336;2023-02-01T05:29:47;10;9;
63662;PMS5003;49815;51.618;0.336;2023-02-01T05:32:13;8;4;
63662;PMS5003;49815;51.618;0.336;2023-02-01T05:34:38;10;5;
63662;PMS5003;49815;51.618;0.336;2023-02-01T05:37:04;5;5;
63662;PMS5003;49815;51.618;0.336;2023-02-01T05:39:29;5;3;
63662;PMS5003;49815;51.618;0.336;2023-02-01T05:41:55;8;4;
63662;PMS5003;49815;51.618;0.336;2023-02-01T05:44:20;9;8;
63662;PMS5003;49815;51.618;0.336;2023-02-01T05:46:46;4;4;
63662;PMS5003;49815;51.618;0.336;2023-02-01T05:49:11;11;8;
63662;PMS5003;49815;51.618;0.336;2023-02-01T05:51:37;10;5;
63662;PMS5003;49815;51.618;0.336;2023-02-01T05:54:03;12;10;
63662;PMS5003;49815;51.618;0.336;2023-02-01T05:56:28;12;6;
63662;PMS5003;49815;51.618;0.336;2023-02-01T05:58:54;5;4;
63662;PMS5003;49815;51.618;0.336;2023-02-01T06:01:20;6;4;
63662;PMS5003;49815;51.618;0.336;2023-02-01T06:03:45;5;5;
63662;PMS5003;49815;51.618;0.336;2023-02-01T06:06:11;9;6;
63662;PMS5003;49815;51.618;0.336;2023-02-01T06:08:36;8;5;
63662;PMS5003;49815;51.618;0.336;2023-02-01T06:11:03;12;8;
63662;PMS5003;49815;51.618;0.336;2023-02-01T06:13:28;8;4;
63662;PMS5003;49815;51.618;0.336;2023-02-01T06:15:53;9;5;
63662;PMS5003;49815;51.618;0.336;2023-02-01T06:18:18;10;5;
63662;PMS5003;49815;51.618;0.336;2023-02-01T06:20:43;8;5;
63662;PMS5003;49815;51.618;0.336;2023-02-01T06:23:09;12;5;
63662;PMS5003;49815;51.618;0.336;2023-02-01T06:25:35;11;6;
63662;PMS5003;49815;51.618;0.336;2023-02-01T06:28:00;4;4;
63662;PMS5003;49815;51.618;0.336;2023-02-01T06:30:25;6;4;
63662;PMS5003;49815;51.618;0.336;2023-02-01T06:32:51;10;10;
63662;PMS5003;49815;51.618;0.336;2023-02-01T06:35:16;10;10;
63662;PMS5003;49815;51.618;0.336;2023-02-01T06:37:41;9;6;
63662;PMS5003;49815;51.618;0.336;2023-02-01T06:40:07;12;9;
63662;PMS5003;49815;51.618;0.336;2023-02-01T06:42:32;10;6;
63662;PMS5003;49815;51.618;0.336;2023-02-01T06:44:58;8;5;
63662;PMS5003;49815;51.618;0.336;2023-02-01T06:47:23;8;4;
63662;PMS5003;49815;51.618;0.336;2023-02-01T06:49:49;8;6;
63662;PMS5003;49815;51.618;0.336;2023-02-01T06:52:14;6;4;
63662;PMS5003;49815;51.618;0.336;2023-02-01T06:54:40;11;8;
63662;PMS5003;49815;51.618;0.336;2023-02-01T06:57:06;10;6;
63662;PMS5003;49815;51.618;0.336;2023-02-01T06:59:31;6;4;
63662;PMS5003;49815;51.618;0.336;2023-02-01T07:01:57;8;5;
63662;PMS5003;49815;51.618;0.336;2023-02-01T07:04:22;5;5;
63662;PMS5003;49815;51.618;0.336;2023-02-01T07:06:48;6;5;
63662;PMS5003;49815;51.618;0.336;2023-02-01T07:09:13;10;6;
63662;PMS5003;49815;51.618;0.336;2023-02-01T07:11:39;6;5;
63662;PMS5003;49815;51.618;0.336;2023-02-01T07:14:04;4;4;
63662;PMS5003;49815;51.618;0.336;2023-02-01T07:16:30;4;4;
63662;PMS5003;49815;51.618;0.336;2023-02-01T07:18:56;6;4;
63662;PMS5003;49815;51.618;0.336;2023-02-01T07:21:21;10;10;
63662;PMS5003;49815;51.618;0.336;2023-02-01T07:23:47;9;4;
63662;PMS5003;49815;51.618;0.336;2023-02-01T07:26:12;10;5;
63662;PMS5003;49815;51.618;0.336;2023-02-01T07:28:37;9;9;
63662;PMS5003;49815;51.618;0.336;2023-02-01T07:31:03;11;8;
63662;PMS5003;49815;51.618;0.336;2023-02-01T07:33:28;6;4;
63662;PMS5003;49815;51.618;0.336;2023-02-01T07:35:54;5;4;
63662;PMS5003;49815;51.618;0.336;2023-02-01T07:38:20;8;4;
63662;PMS5003;49815;51.618;0.336;2023-02-01T07:40:45;10;9;
63662;PMS5003;49815;51.618;0.336;2023-02-01T07:43:10;8;8;
63662;PMS5003;49815;51.618;0.336;2023-02-01T07:45:36;9;6;
63662;PMS5003;49815;51.618;0.336;2023-02-01T07:48:02;15;5;
63662;PMS5003;49815;51.618;0.336;2023-02-01T07:50:27;6;6;
63662;PMS5003;49815;51.618;0.336;2023-02-01T07:52:53;11;5;
63662;PMS5003;49815;51.618;0.336;2023-02-01T07:55:18;12;5;
63662;PMS5003;49815;51.618;0.336;2023-02-01T07:57:44;8;5;
63662;PMS5003;49815;51.618;0.336;2023-02-01T08:00:09;5;5;
63662;PMS5003;49815;51.618;0.336;2023-02-01T08:02:34;12;9;
63662;PMS5003;49815;51.618;0.336;2023-02-01T08:05:00;10;5;
63662;PMS5003;49815;51.618;0.336;2023-02-01T08:07:25;8;8;
63662;PMS5003;49815;51.618;0.336;2023-02-01T08:09:50;11;6;
63662;PMS5003;49815;51.618;0.336;2023-02-01T08:12:16;6;5;
63662;PMS5003;49815;51.618;0.336;2023-02-01T08:14:41;9;8;
63662;PMS5003;49815;51.618;0.336;2023-02-01T08:17:08;6;5;
63662;PMS5003;49815;51.618;0.336;2023-02-01T08:19:33;11;6;
63662;PMS5003;49815;51.618;0.336;2023-02-01T08:21:57;11;8;
63662;PMS5003;49815;51.618;0.336;2023-02-01T08:24:23;11;8;
63662;PMS5003;49815;51.618;0.336;2023-02-01T08:26:49;9;4;
63662;PMS5003;49815;51.618;0.336;2023-02-01T08:29:14;9;5;
63662;PMS5003;49815;51.618;0.336;2023-02-01T08:31:40;5;5;
63662;PMS5003;49815;51.618;0.336;2023-02-01T08:34:06;11;7;
63662;PMS5003;49815;51.618;0.336;2023-02-01T08:36:31;5;5;
63662;PMS5003;49815;51.618;0.336;2023-02-01T08:38:57;10;6;
63662;PMS5003;49815;51.618;0.336;2023-02-01T08:41:23;7;4;
63662;PMS5003;49815;51.618;0.336;2023-02-01T08:43:48;7;7;
63662;PMS5003;49815;51.618;0.336;2023-02-01T08:46:14;10;7;
63662;PMS5003;49815;51.618;0.336;2023-02-01T08:48:39;10;6;
63662;PMS5003;49815;51.618;0.336;2023-02-01T08:51:05;9;7;
63662;PMS5003;49815;51.618;0.336;2023-02-01T08:53:30;6;5;
63662;PMS5003;49815;51.618;0.336;2023-02-01T08:55:56;7;6;
63662;PMS5003;49815;51.618;0.336;2023-02-01T08:58:22;11;6;
63662;PMS5003;49815;51.618;0.336;2023-02-01T09:00:47;9;5;
63662;PMS5003;49815;51.618;0.336;2023-02-01T09:03:12;15;12;
63662;PMS5003;49815;51.618;0.336;2023-02-01T09:05:38;11;6;
63662;PMS5003;49815;51.618;0.336;2023-02-01T09:08:04;7;6;
63662;PMS5003;49815;51.618;0.336;2023-02-01T09:10:29;10;7;
63662;PMS5003;49815;51.618;0.336;2023-02-01T09:12:54;20;12;
63662;PMS5003;49815;51.618;0.336;2023-02-01T09:15:20;6;6;
63662;PMS5003;49815;51.618;0.336;2023-02-01T09:17:45;12;11;
63662;PMS5003;49815;51.618;0.336;2023-02-01T09:20:11;8;5;
63662;PMS5003;49815;51.618;0.336;2023-02-01T09:22:36;5;5;
63662;PMS5003;49815;51.618;0.336;2023-02-01T09:25:04;16;14;
63662;PMS5003;49815;51.618;0.336;2023-02-01T09:27:27;8;5;
63662;PMS5003;49815;51.618;0.336;2023-02-01T09:29:53;5;5;
63662;PMS5003;49815;51.618;0.336;2023-02-01T09:32:18;8;7;
63662;PMS5003;49815;51.618;0.336;2023-02-01T09:34:44;10;5;
63662;PMS5003;49815;51.618;0.336;2023-02-01T09:37:09;10;6;
63662;PMS5003;49815;51.618;0.336;2023-02-01T09:39:35;6;6;
63662;PMS5003;49815;51.618;0.336;2023-02-01T09:42:04;9;7;
63662;PMS5003;49815;51.618;0.336;2023-02-01T09:44:31;11;8;
63662;PMS5003;49815;51.618;0.336;2023-02-01T09:46:53;14;7;
63662;PMS5003;49815;51.618;0.336;2023-02-01T09:49:18;6;6;
63662;PMS5003;49815;51.618;0.336;2023-02-01T09:51:43;9;6;
63662;PMS5003;49815;51.618;0.336;2023-02-01T09:54:09;8;4;
63662;PMS5003;49815;51.618;0.336;2023-02-01T09:56:35;8;8;
63662;PMS5003;49815;51.618;0.336;2023-02-01T09:59:01;14;7;
63662;PMS5003;49815;51.618;0.336;2023-02-01T10:01:25;6;6;
63662;PMS5003;49815;51.618;0.336;2023-02-01T10:03:50;9;6;
63662;PMS5003;49815;51.618;0.336;2023-02-01T10:06:25;12;4;
63662;PMS5003;49815;51.618;0.336;2023-02-01T10:11:11;9;5;
63662;PMS5003;49815;51.618;0.336;2023-02-01T10:13:36;7;6;
63662;PMS5003;49815;51.618;0.336;2023-02-01T10:16:00;10;7;
63662;PMS5003;49815;51.618;0.336;2023-02-01T10:18:27;7;5;
63662;PMS5003;49815;51.618;0.336;2023-02-01T10:20:52;12;8;
63662;PMS5003;49815;51.618;0.336;2023-02-01T10:23:19;6;6;
63662;PMS5003;49815;51.618;0.336;2023-02-01T10:25:41;7;5;
63662;PMS5003;49815;51.618;0.336;2023-02-01T10:28:06;5;5;
63662;PMS5003;49815;51.618;0.336;2023-02-01T10:30:31;6;4;
63662;PMS5003;49815;51.618;0.336;2023-02-01T10:32:57;12;10;
63662;PMS5003;49815;51.618;0.336;2023-02-01T10:35:24;17;12;
63662;PMS5003;49815;51.618;0.336;2023-02-01T10:37:47;9;5;
63662;PMS5003;49815;51.618;0.336;2023-02-01T10:40:15;7;3;
63662;PMS5003;49815;51.618;0.336;2023-02-01T10:42:38;6;5;
63662;PMS5003;49815;51.618;0.336;2023-02-01T10:45:04;14;6;
63662;PMS5003;49815;51.618;0.336;2023-02-01T10:47:29;6;5;
63662;PMS5003;49815;51.618;0.336;2023-02-01T10:49:56;6;6;
63662;PMS5003;49815;51.618;0.336;2023-02-01T10:52:20;9;7;
63662;PMS5003;49815;51.618;0.336;2023-02-01T10:54:45;7;6;
63662;PMS5003;49815;51.618;0.336;2023-02-01T10:57:10;6;5;
63662;PMS5003;49815;51.618;0.336;2023-02-01T10:59:35;14;11;
63662;PMS5003;49815;51.618;0.336;2023-02-01T11:02:05;10;5;
63662;PMS5003;49815;51.618;0.336;2023-02-01T11:04:27;10;7;
63662;PMS5003;49815;51.618;0.336;2023-02-01T11:06:53;6;4;
63662;PMS5003;49815;51.618;0.336;2023-02-01T11:09:19;10;5;
63662;PMS5003;49815;51.618;0.336;2023-02-01T11:14:13;11;6;
63662;PMS5003;49815;51.618;0.336;2023-02-01T11:16:34;8;6;
63662;PMS5003;49815;51.618;0.336;2023-02-01T11:18:59;8;6;
63662;PMS5003;49815;51.618;0.336;2023-02-01T11:21:24;9;4;
63662;PMS5003;49815;51.618;0.336;2023-02-01T11:23:49;6;6;
63662;PMS5003;49815;51.618;0.336;2023-02-01T11:26:19;4;4;
63662;PMS5003;49815;51.618;0.336;2023-02-01T11:28:41;7;5;
63662;PMS5003;49815;51.618;0.336;2023-02-01T11:31:07;5;5;
63662;PMS5003;49815;51.618;0.336;2023-02-01T11:33:32;9;5;
63662;PMS5003;49815;51.618;0.336;2023-02-01T11:35:57;4;3;
63662;PMS5003;49815;51.618;0.336;2023-02-01T11:38:25;6;5;
63662;PMS5003;49815;51.618;0.336;2023-02-01T11:40:48;9;6;
63662;PMS5003;49815;51.618;0.336;2023-02-01T11:43:15;6;3;
63662;PMS5003;49815;51.618;0.336;2023-02-01T11:45:39;6;4;
63662;PMS5003;49815;51.618;0.336;2023-02-01T11:48:07;8;5;
63662;PMS5003;49815;51.618;0.336;2023-02-01T11:50:37;5;5;
63662;PMS5003;49815;51.618;0.336;2023-02-01T11:53:00;10;9;
63662;PMS5003;49815;51.618;0.336;2023-02-01T11:55:27;11;8;
63662;PMS5003;49815;51.618;0.336;2023-02-01T11:57:50;4;4;
63662;PMS5003;49815;51.618;0.336;2023-02-01T12:00:16;6;4;
63662;PMS5003;49815;51.618;0.336;2023-02-01T12:02:42;7;6;
63662;PMS5003;49815;51.618;0.336;2023-02-01T12:05:09;10;5;
63662;PMS5003;49815;51.618;0.336;2023-02-01T12:07:30;6;4;
63662;PMS5003;49815;51.618;0.336;2023-02-01T12:09:57;4;4;
63662;PMS5003;49815;51.618;0.336;2023-02-01T12:12:19;12;8;
63662;PMS5003;49815;51.618;0.336;2023-02-01T12:14:47;4;4;
63662;PMS5003;49815;51.618;0.336;2023-02-01T12:17:16;10;5;
63662;PMS5003;49815;51.618;0.336;2023-02-01T12:19:37;9;6;
63662;PMS5003;49815;51.618;0.336;2023-02-01T12:22:03;5;5;
63662;PMS5003;49815;51.618;0.336;2023-02-01T12:24:30;6;6;
63662;PMS5003;49815;51.618;0.336;2023-02-01T12:26:53;30;24;
63662;PMS5003;49815;51.618;0.336;2023-02-01T12:29:23;24;19;
63662;PMS5003;49815;51.618;0.336;2023-02-01T12:31:44;38;38;
63662;PMS5003;49815;51.618;0.336;2023-02-01T12:34:14;23;20;
63662;PMS5003;49815;51.618;0.336;2023-02-01T12:36:36;44;39;
63662;PMS5003;49815;51.618;0.336;2023-02-01T12:39:02;15;15;
63662;PMS5003;49815;51.618;0.336;2023-02-01T12:41:31;6;5;
63662;PMS5003;49815;51.618;0.336;2023-02-01T12:43:50;7;6;
63662;PMS5003;49815;51.618;0.336;2023-02-01T12:46:15;7;7;
63662;PMS5003;49815;51.618;0.336;2023-02-01T12:48:41;6;6;
63662;PMS5003;49815;51.618;0.336;2023-02-01T12:51:07;14;12;
63662;PMS5003;49815;51.618;0.336;2023-02-01T12:53:33;10;5;
63662;PMS5003;49815;51.618;0.336;2023-02-01T12:55:57;7;6;
63662;PMS5003;49815;51.618;0.336;2023-02-01T12:58:22;11;8;
63662;PMS5003;49815;51.618;0.336;2023-02-01T13:00:49;18;13;
63662;PMS5003;49815;51.618;0.336;2023-02-01T13:03:15;11;10;
63662;PMS5003;49815;51.618;0.336;2023-02-01T13:05:40;7;6;
63662;PMS5003;49815;51.618;0.336;2023-02-01T13:08:05;9;7;
63662;PMS5003;49815;51.618;0.336;2023-02-01T13:10:30;8;8;
63662;PMS5003;49815;51.618;0.336;2023-02-01T13:12:54;11;6;
63662;PMS5003;49815;51.618;0.336;2023-02-01T13:15:21;7;6;
63662;PMS5003;49815;51.618;0.336;2023-02-01T13:17:45;9;4;
63662;PMS5003;49815;51.618;0.336;2023-02-01T13:20:13;3;3;
63662;PMS5003;49815;51.618;0.336;2023-02-01T13:22:36;4;3;
63662;PMS5003;49815;51.618;0.336;2023-02-01T13:25:02;6;4;
63662;PMS5003;49815;51.618;0.336;2023-02-01T13:27:26;4;3;
63662;PMS5003;49815;51.618;0.336;2023-02-01T13:29:53;6;4;
63662;PMS5003;49815;51.618;0.336;2023-02-01T13:32:22;4;4;
63662;PMS5003;49815;51.618;0.336;2023-02-01T13:34:47;5;5;
63662;PMS5003;49815;51.618;0.336;2023-02-01T13:37:12;8;5;
63662;PMS5003;49815;51.618;0.336;2023-02-01T13:39:42;6;3;
63662;PMS5003;49815;51.618;0.336;2023-02-01T13:42:00;4;4;
63662;PMS5003;49815;51.618;0.336;2023-02-01T13:44:26;6;3;
63662;PMS5003;49815;51.618;0.336;2023-02-01T13:46:50;6;5;
63662;PMS5003;49815;51.618;0.336;2023-02-01T13:49:18;5;4;
63662;PMS5003;49815;51.618;0.336;2023-02-01T13:51:40;6;4;
63662;PMS5003;49815;51.618;0.336;2023-02-01T13:54:05;7;3;
63662;PMS5003;49815;51.618;0.336;2023-02-01T13:58:56;4;4;
63662;PMS5003;49815;51.618;0.336;2023-02-01T14:03:51;8;3;
63662;PMS5003;49815;51.618;0.336;2023-02-01T14:06:15;7;5;
63662;PMS5003;49815;51.618;0.336;2023-02-01T14:08:40;7;6;
63662;PMS5003;49815;51.618;0.336;2023-02-01T14:11:04;6;4;
63662;PMS5003;49815;51.618;0.336;2023-02-01T14:13:30;8;5;
63662;PMS5003;49815;51.618;0.336;2023-02-01T14:20:46;5;5;
63662;PMS5003;49815;51.618;0.336;2023-02-01T14:23:13;6;6;
63662;PMS5003;49815;51.618;0.336;2023-02-01T14:25:36;10;8;
63662;PMS5003;49815;51.618;0.336;2023-02-01T14:28:01;9;6;
63662;PMS5003;49815;51.618;0.336;2023-02-01T14:30:27;4;4;
63662;PMS5003;49815;51.618;0.336;2023-02-01T14:32:52;6;6;
63662;PMS5003;49815;51.618;0.336;2023-02-01T14:35:18;7;6;
63662;PMS5003;49815;51.618;0.336;2023-02-01T14:37:42;8;8;
63662;PMS5003;49815;51.618;0.336;2023-02-01T14:42:36;21;20;
63662;PMS5003;49815;51.618;0.336;2023-02-01T14:47:28;20;19;
63662;PMS5003;49815;51.618;0.336;2023-02-01T14:49:53;38;36;
63662;PMS5003;49815;51.618;0.336;2023-02-01T14:52:16;63;61;
63662;PMS5003;49815;51.618;0.336;2023-02-01T14:54:40;25;22;
63662;PMS5003;49815;51.618;0.336;2023-02-01T14:57:09;21;18;
63662;PMS5003;49815;51.618;0.336;2023-02-01T14:59:32;2;2;
63662;PMS5003;49815;51.618;0.336;2023-02-01T15:01:57;4;3;
63662;PMS5003;49815;51.618;0.336;2023-02-01T15:04:24;4;2;
63662;PMS5003;49815;51.618;0.336;2023-02-01T15:06:49;2;2;
63662;PMS5003;49815;51.618;0.336;2023-02-01T15:09:14;7;6;
63662;PMS5003;49815;51.618;0.336;2023-02-01T15:16:30;6;4;
63662;PMS5003;49815;51.618;0.336;2023-02-01T15:21:21;3;3;
63662;PMS5003;49815;51.618;0.336;2023-02-01T15:23:46;37;36;
63662;PMS5003;49815;51.618;0.336;2023-02-01T15:26:11;81;79;
63662;PMS5003;49815;51.618;0.336;2023-02-01T15:28:36;25;23;
63662;PMS5003;49815;51.618;0.336;2023-02-01T15:31:03;54;50;
63662;PMS5003;49815;51.618;0.336;2023-02-01T15:33:27;27;26;
63662;PMS5003;49815;51.618;0.336;2023-02-01T15:35:53;27;23;
63662;PMS5003;49815;51.618;0.336;2023-02-01T15:38:20;63;60;
63662;PMS5003;49815;51.618;0.336;2023-02-01T15:43:11;44;43;
63662;PMS5003;49815;51.618;0.336;2023-02-01T15:45:35;43;37;
63662;PMS5003;49815;51.618;0.336;2023-02-01T15:48:01;24;22;
63662;PMS5003;49815;51.618;0.336;2023-02-01T15:50:26;25;25;
63662;PMS5003;49815;51.618;0.336;2023-02-01T15:52:52;33;32;
63662;PMS5003;49815;51.618;0.336;2023-02-01T15:55:18;31;29;
63662;PMS5003;49815;51.618;0.336;2023-02-01T15:57:42;31;28;
63662;PMS5003;49815;51.618;0.336;2023-02-01T16:02:34;27;27;
63662;PMS5003;49815;51.618;0.336;2023-02-01T16:04:58;45;44;
63662;PMS5003;49815;51.618;0.336;2023-02-01T16:07:25;35;31;
63662;PMS5003;49815;51.618;0.336;2023-02-01T16:09:51;33;30;
63662;PMS5003;49815;51.618;0.336;2023-02-01T16:12:20;27;24;
63662;PMS5003;49815;51.618;0.336;2023-02-01T16:14:40;31;25;
63662;PMS5003;49815;51.618;0.336;2023-02-01T16:17:05;29;26;
63662;PMS5003;49815;51.618;0.336;2023-02-01T16:19:31;60;57;
63662;PMS5003;49815;51.618;0.336;2023-02-01T16:21:56;27;25;
63662;PMS5003;49815;51.618;0.336;2023-02-01T16:24:22;29;29;
63662;PMS5003;49815;51.618;0.336;2023-02-01T16:26:47;35;35;
63662;PMS5003;49815;51.618;0.336;2023-02-01T16:29:13;27;27;
63662;PMS5003;49815;51.618;0.336;2023-02-01T16:31:38;37;35;
63662;PMS5003;49815;51.618;0.336;2023-02-01T16:34:04;33;30;
63662;PMS5003;49815;51.618;0.336;2023-02-01T16:36:29;27;25;
63662;PMS5003;49815;51.618;0.336;2023-02-01T16:38:55;36;36;
63662;PMS5003;49815;51.618;0.336;2023-02-01T16:41:21;33;32;
63662;PMS5003;49815;51.618;0.336;2023-02-01T16:43:45;28;27;
63662;PMS5003;49815;51.618;0.336;2023-02-01T16:46:12;26;24;
63662;PMS5003;49815;51.618;0.336;2023-02-01T16:48:36;55;53;
63662;PMS5003;49815;51.618;0.336;2023-02-01T16:51:02;56;52;
63662;PMS5003;49815;51.618;0.336;2023-02-01T16:53:28;56;54;
63662;PMS5003;49815;51.618;0.336;2023-02-01T16:55:52;61;56;
63662;PMS5003;49815;51.618;0.336;2023-02-01T16:58:19;46;44;
63662;PMS5003;49815;51.618;0.336;2023-02-01T17:00:44;26;24;
63662;PMS5003;49815;51.618;0.336;2023-02-01T17:03:09;29;29;